createdAt,value
2018-06-28T00:00:46.593Z,99.99
2018-06-28T00:01:46.522Z,99.99
2018-06-28T00:02:46.569Z,99.99
2018-06-28T00:03:46.607Z,99.99
2018-06-28T00:04:46.642Z,99.99
2018-06-28T00:05:46.648Z,99.99
2018-06-28T00:06:46.558Z,99.99
2018-06-28T00:07:46.569Z,99.99
2018-06-28T00:08:46.692Z,99.99
2018-06-28T00:09:46.608Z,99.99
2018-06-28T00:10:46.574Z,99.99
2018-06-28T00:11:46.564Z,99.99
2018-06-28T00:12:46.614Z,99.99
2018-06-28T00:13:46.612Z,99.99
2018-06-28T00:14:46.546Z,99.99
2018-06-28T00:15:46.613Z,99.99
2018-06-28T00:16:46.616Z,99.99
2018-06-28T00:17:46.548Z,99.99
2018-06-28T00:18:46.639Z,99.99
2018-06-28T00:19:46.616Z,99.99
2018-06-28T00:20:46.615Z,99.99
2018-06-28T00:21:46.555Z,99.99
2018-06-28T00:22:46.538Z,99.99
2018-06-28T00:23:46.633Z,99.99
2018-06-28T00:24:46.562Z,99.99
2018-06-28T00:25:46.611Z,99.99
2018-06-28T00:26:46.616Z,99.99
2018-06-28T00:27:46.526Z,99.99
2018-06-28T00:28:46.610Z,99.99
2018-06-28T00:29:46.509Z,99.99
2018-06-28T00:30:46.540Z,99.99
2018-06-28T00:31:46.561Z,99.99
2018-06-28T00:32:46.586Z,99.99
2018-06-28T00:33:46.587Z,99.99
2018-06-28T00:34:46.541Z,99.99
2018-06-28T00:35:46.564Z,99.99
2018-06-28T00:36:46.626Z,99.99
2018-06-28T00:37:46.685Z,99.99
2018-06-28T00:38:46.581Z,99.99
2018-06-28T00:39:46.657Z,99.99
2018-06-28T00:40:46.622Z,99.99
2018-06-28T00:41:46.590Z,99.99
2018-06-28T00:42:46.592Z,99.99
2018-06-28T00:43:46.636Z,99.99
2018-06-28T00:44:46.670Z,99.99
2018-06-28T00:45:46.675Z,99.99
2018-06-28T00:46:46.659Z,99.99
2018-06-28T00:47:46.641Z,99.99
2018-06-28T00:48:46.600Z,99.99
2018-06-28T00:49:46.673Z,99.99
2018-06-28T00:50:46.660Z,99.99
2018-06-28T00:51:46.605Z,99.99
2018-06-28T00:52:46.622Z,99.99
2018-06-28T00:53:46.627Z,99.99
2018-06-28T00:54:46.554Z,99.99
2018-06-28T00:55:46.627Z,99.99
2018-06-28T00:56:46.599Z,99.99
2018-06-28T00:57:46.638Z,99.99
2018-06-28T00:58:46.580Z,99.99
2018-06-28T00:59:46.569Z,99.99
2018-06-28T01:00:46.510Z,99.99
2018-06-28T01:01:46.564Z,99.99
2018-06-28T01:02:46.679Z,99.99
2018-06-28T01:03:46.565Z,99.99
2018-06-28T01:04:46.668Z,99.99
2018-06-28T01:05:46.660Z,99.99
2018-06-28T01:06:46.679Z,99.99
2018-06-28T01:07:46.626Z,99.99
2018-06-28T01:08:46.582Z,99.99
2018-06-28T01:09:46.680Z,99.99
2018-06-28T01:10:46.650Z,99.99
2018-06-28T01:11:46.646Z,99.99
2018-06-28T01:12:46.567Z,99.99
2018-06-28T01:13:46.610Z,99.99
2018-06-28T01:14:46.617Z,99.99
2018-06-28T01:15:46.622Z,99.99
2018-06-28T01:16:46.608Z,99.99
2018-06-28T01:17:46.680Z,99.99
2018-06-28T01:18:46.615Z,99.99
2018-06-28T01:19:46.685Z,99.99
2018-06-28T01:20:46.629Z,99.99
2018-06-28T01:21:46.694Z,99.99
2018-06-28T01:22:46.588Z,99.99
2018-06-28T01:23:46.660Z,99.99
2018-06-28T01:24:46.636Z,99.99
2018-06-28T01:25:46.589Z,99.99
2018-06-28T01:26:46.662Z,99.99
2018-06-28T01:27:46.663Z,99.99
2018-06-28T01:28:46.662Z,99.99
2018-06-28T01:29:46.593Z,99.99
2018-06-28T01:30:46.662Z,99.99
2018-06-28T01:31:46.664Z,99.99
2018-06-28T01:32:46.600Z,99.99
2018-06-28T01:33:46.662Z,99.99
2018-06-28T01:34:46.664Z,99.99
2018-06-28T01:35:46.665Z,99.99
2018-06-28T01:36:46.665Z,99.99
2018-06-28T01:37:46.616Z,99.99
2018-06-28T01:38:46.601Z,99.99
2018-06-28T01:39:46.671Z,99.99
2018-06-28T01:40:46.608Z,99.99
2018-06-28T01:41:46.669Z,99.99
2018-06-28T01:42:46.615Z,99.99
2018-06-28T01:43:46.575Z,99.99
2018-06-28T01:44:46.631Z,99.99
2018-06-28T01:45:46.640Z,99.99
2018-06-28T01:46:46.727Z,99.99
2018-06-28T01:47:46.683Z,99.99
2018-06-28T01:48:46.658Z,99.99
2018-06-28T01:49:46.672Z,99.99
2018-06-28T01:50:46.711Z,99.99
2018-06-28T01:51:46.672Z,99.99
2018-06-28T01:52:46.544Z,99.99
2018-06-28T01:53:46.671Z,99.99
2018-06-28T01:54:46.582Z,99.99
2018-06-28T01:55:46.618Z,99.99
2018-06-28T01:56:46.614Z,99.99
2018-06-28T01:57:46.665Z,99.99
2018-06-28T01:58:46.552Z,99.99
2018-06-28T01:59:46.679Z,99.99
2018-06-28T02:00:46.615Z,99.99
2018-06-28T02:01:46.678Z,99.99
2018-06-28T02:02:46.682Z,99.99
2018-06-28T02:03:46.620Z,99.99
2018-06-28T02:04:46.669Z,99.99
2018-06-28T02:05:46.723Z,99.99
2018-06-28T02:06:46.646Z,99.99
2018-06-28T02:07:46.717Z,99.99
2018-06-28T02:08:46.717Z,99.99
2018-06-28T02:09:46.614Z,99.99
2018-06-28T02:10:46.727Z,99.99
2018-06-28T02:11:46.641Z,99.99
2018-06-28T02:12:46.721Z,99.99
2018-06-28T02:13:46.613Z,99.99
2018-06-28T02:14:46.688Z,99.99
2018-06-28T02:15:46.691Z,99.99
2018-06-28T02:16:46.696Z,99.99
2018-06-28T02:17:46.725Z,99.99
2018-06-28T02:18:46.716Z,99.99
2018-06-28T02:19:46.658Z,99.99
2018-06-28T02:20:46.599Z,99.99
2018-06-28T02:21:46.632Z,99.99
2018-06-28T02:22:46.593Z,99.99
2018-06-28T02:23:46.751Z,99.99
2018-06-28T02:24:46.720Z,99.99
2018-06-28T02:25:46.718Z,99.99
2018-06-28T02:26:46.727Z,99.99
2018-06-28T02:27:46.719Z,99.99
2018-06-28T02:28:46.728Z,99.99
2018-06-28T02:29:46.663Z,99.99
2018-06-28T02:30:46.606Z,99.99
2018-06-28T02:31:46.731Z,99.99
2018-06-28T02:32:46.723Z,99.99
2018-06-28T02:33:46.704Z,99.99
2018-06-28T02:34:46.641Z,99.99
2018-06-28T02:35:46.636Z,99.99
2018-06-28T02:36:46.705Z,99.99
2018-06-28T02:37:46.639Z,99.99
2018-06-28T02:38:46.646Z,99.99
2018-06-28T02:39:46.706Z,99.99
2018-06-28T02:40:46.644Z,99.99
2018-06-28T02:41:46.710Z,99.99
2018-06-28T02:42:46.728Z,99.99
2018-06-28T02:43:46.708Z,99.99
2018-06-28T02:44:46.709Z,99.99
2018-06-28T02:45:46.643Z,99.99
2018-06-28T02:46:46.653Z,99.99
2018-06-28T02:47:46.646Z,99.99
2018-06-28T02:48:46.650Z,99.99
2018-06-28T02:49:46.652Z,99.99
2018-06-28T02:50:46.721Z,99.99
2018-06-28T02:51:46.657Z,99.99
2018-06-28T02:52:46.648Z,99.99
2018-06-28T02:53:46.677Z,99.99
2018-06-28T02:54:46.657Z,99.99
2018-06-28T02:55:46.637Z,99.99
2018-06-28T02:56:46.675Z,99.99
2018-06-28T02:57:46.587Z,99.99
2018-06-28T02:58:46.677Z,99.99
2018-06-28T02:59:46.712Z,99.99
2018-06-28T03:00:46.659Z,99.99
2018-06-28T03:01:46.749Z,99.99
2018-06-28T03:02:46.649Z,99.99
2018-06-28T03:03:46.624Z,99.99
2018-06-28T03:04:46.648Z,99.99
2018-06-28T03:05:46.743Z,99.99
2018-06-28T03:06:46.838Z,99.99
2018-06-28T03:07:46.756Z,99.99
2018-06-28T03:08:46.732Z,99.99
2018-06-28T03:09:46.731Z,99.99
2018-06-28T03:10:46.701Z,99.99
2018-06-28T03:11:46.694Z,99.99
2018-06-28T03:12:46.668Z,99.99
2018-06-28T03:13:46.653Z,99.99
2018-06-28T03:14:46.726Z,99.99
2018-06-28T03:15:46.727Z,99.99
2018-06-28T03:16:46.656Z,99.99
2018-06-28T03:17:46.728Z,99.99
2018-06-28T03:18:46.721Z,99.99
2018-06-28T03:19:46.723Z,99.99
2018-06-28T03:20:46.651Z,99.99
2018-06-28T03:21:46.721Z,99.99
2018-06-28T03:22:46.730Z,99.99
2018-06-28T03:23:46.752Z,99.99
2018-06-28T03:24:46.684Z,99.99
2018-06-28T03:25:46.762Z,99.99
2018-06-28T03:26:46.677Z,99.99
2018-06-28T03:27:46.777Z,99.99
2018-06-28T03:28:46.736Z,99.99
2018-06-28T03:29:46.652Z,99.99
2018-06-28T03:30:46.660Z,99.99
2018-06-28T03:31:46.764Z,99.99
2018-06-28T03:32:46.706Z,99.99
2018-06-28T03:33:46.648Z,99.99
2018-06-28T03:34:46.708Z,99.99
2018-06-28T03:35:46.644Z,99.99
2018-06-28T03:36:46.746Z,99.99
2018-06-28T03:37:46.754Z,99.99
2018-06-28T03:38:46.745Z,99.99
2018-06-28T03:39:46.772Z,99.99
2018-06-28T03:40:46.745Z,99.99
2018-06-28T03:41:46.705Z,99.99
2018-06-28T03:42:46.783Z,99.99
2018-06-28T03:43:46.708Z,99.99
2018-06-28T03:44:46.667Z,99.99
2018-06-28T03:45:46.683Z,99.99
2018-06-28T03:46:46.677Z,99.99
2018-06-28T03:47:46.624Z,99.99
2018-06-28T03:48:46.620Z,99.99
2018-06-28T03:49:46.617Z,99.99
2018-06-28T03:50:46.709Z,99.99
2018-06-28T03:51:46.687Z,99.99
2018-06-28T03:52:46.732Z,99.99
2018-06-28T03:53:46.754Z,99.99
2018-06-28T03:54:46.761Z,99.99
2018-06-28T03:55:46.692Z,99.99
2018-06-28T03:56:46.756Z,99.99
2018-06-28T03:57:46.760Z,99.99
2018-06-28T03:58:46.690Z,99.99
2018-06-28T03:59:46.688Z,99.99
2018-06-28T04:00:46.757Z,99.99
2018-06-28T04:01:46.726Z,99.99
2018-06-28T04:02:46.782Z,99.99
2018-06-28T04:03:46.691Z,99.99
2018-06-28T04:04:46.648Z,99.99
2018-06-28T04:05:46.695Z,99.99
2018-06-28T04:06:46.701Z,99.99
2018-06-28T04:07:46.701Z,99.99
2018-06-28T04:08:46.656Z,99.99
2018-06-28T04:09:46.768Z,99.99
2018-06-28T04:10:46.632Z,99.99
2018-06-28T04:11:46.733Z,99.99
2018-06-28T04:12:46.704Z,99.99
2018-06-28T04:13:46.745Z,99.99
2018-06-28T04:14:46.776Z,99.99
2018-06-28T04:15:46.799Z,99.99
2018-06-28T04:16:46.773Z,99.99
2018-06-28T04:17:46.674Z,99.99
2018-06-28T04:18:46.738Z,99.99
2018-06-28T04:19:46.696Z,99.99
2018-06-28T04:20:46.675Z,99.99
2018-06-28T04:21:46.694Z,99.99
2018-06-28T04:22:46.812Z,99.99
2018-06-28T04:23:46.694Z,99.99
2018-06-28T04:24:46.745Z,99.99
2018-06-28T04:25:46.776Z,99.99
2018-06-28T04:26:46.779Z,99.99
2018-06-28T04:27:46.814Z,99.99
2018-06-28T04:28:46.750Z,99.99
2018-06-28T04:29:46.701Z,99.99
2018-06-28T04:30:46.700Z,99.99
2018-06-28T04:31:46.717Z,99.99
2018-06-28T04:32:46.812Z,99.99
2018-06-28T04:33:46.651Z,99.99
2018-06-28T04:34:46.745Z,99.99
2018-06-28T04:35:46.684Z,99.99
2018-06-28T04:36:46.739Z,99.99
2018-06-28T04:37:46.682Z,99.99
2018-06-28T04:38:46.708Z,99.99
2018-06-28T04:39:46.725Z,99.99
2018-06-28T04:40:46.674Z,99.99
2018-06-28T04:41:46.654Z,99.99
2018-06-28T04:42:46.682Z,99.99
2018-06-28T04:43:46.788Z,99.99
2018-06-28T04:44:46.788Z,99.99
2018-06-28T04:45:46.727Z,99.99
2018-06-28T04:46:46.798Z,99.99
2018-06-28T04:47:46.724Z,99.99
2018-06-28T04:48:46.722Z,99.99
2018-06-28T04:49:46.836Z,99.99
2018-06-28T04:50:46.851Z,99.99
2018-06-28T04:51:46.727Z,99.99
2018-06-28T04:52:46.727Z,99.99
2018-06-28T04:53:46.773Z,99.99
2018-06-28T04:54:46.872Z,99.99
2018-06-28T04:55:46.759Z,99.99
2018-06-28T04:56:46.696Z,99.99
2018-06-28T04:57:46.827Z,99.99
2018-06-28T04:58:46.793Z,99.99
2018-06-28T04:59:46.717Z,99.99
2018-06-28T05:00:46.823Z,99.99
2018-06-28T05:01:46.769Z,99.99
2018-06-28T05:02:46.805Z,99.99
2018-06-28T05:03:46.723Z,99.99
2018-06-28T05:04:46.784Z,99.99
2018-06-28T05:05:46.764Z,99.99
2018-06-28T05:06:46.760Z,99.99
2018-06-28T05:07:46.706Z,99.99
2018-06-28T05:08:46.767Z,99.99
2018-06-28T05:09:46.814Z,99.99
2018-06-28T05:10:46.825Z,99.99
2018-06-28T05:11:46.830Z,99.99
2018-06-28T05:12:46.831Z,99.99
2018-06-28T05:13:46.761Z,99.99
2018-06-28T05:14:46.789Z,99.99
2018-06-28T05:15:46.772Z,99.99
2018-06-28T05:16:46.830Z,99.99
2018-06-28T05:17:46.811Z,99.99
2018-06-28T05:18:46.780Z,99.99
2018-06-28T05:19:46.773Z,99.99
2018-06-28T05:20:46.814Z,99.99
2018-06-28T05:21:46.718Z,99.99
2018-06-28T05:22:46.853Z,99.32
2018-06-28T05:23:46.736Z,98.59
2018-06-28T05:24:46.722Z,98.04
2018-06-28T05:25:46.803Z,97.77
2018-06-28T05:26:46.810Z,97.61
2018-06-28T05:27:46.725Z,97.53
2018-06-28T05:28:46.806Z,97.42
2018-06-28T05:29:46.755Z,97.45
2018-06-28T05:30:46.685Z,97.45
2018-06-28T05:31:46.752Z,97.28
2018-06-28T05:32:46.809Z,96.93
2018-06-28T05:33:46.822Z,96.64
2018-06-28T05:34:46.893Z,96.28
2018-06-28T05:35:46.896Z,95.98
2018-06-28T05:36:46.724Z,95.91
2018-06-28T05:37:46.789Z,96.04
2018-06-28T05:38:46.787Z,96.09
2018-06-28T05:39:46.842Z,96.04
2018-06-28T05:40:46.858Z,95.58
2018-06-28T05:41:46.767Z,95.12
2018-06-28T05:42:46.797Z,95.07
2018-06-28T05:43:46.857Z,95.10
2018-06-28T05:44:46.734Z,94.77
2018-06-28T05:45:46.731Z,94.61
2018-06-28T05:46:46.789Z,94.07
2018-06-28T05:47:46.811Z,93.48
2018-06-28T05:48:46.848Z,92.91
2018-06-28T05:49:46.796Z,92.78
2018-06-28T05:50:46.829Z,92.68
2018-06-28T05:51:46.857Z,92.03
2018-06-28T05:52:46.774Z,91.07
2018-06-28T05:53:46.730Z,89.37
2018-06-28T05:54:46.756Z,88.57
2018-06-28T05:55:46.754Z,87.56
2018-06-28T05:56:46.836Z,87.05
2018-06-28T05:57:46.857Z,84.07
2018-06-28T05:58:46.876Z,83.51
2018-06-28T05:59:46.862Z,83.04
2018-06-28T06:00:46.809Z,82.88
2018-06-28T06:01:47.035Z,83.06
2018-06-28T06:02:46.794Z,82.75
2018-06-28T06:03:46.763Z,82.14
2018-06-28T06:04:46.877Z,81.56
2018-06-28T06:05:46.811Z,79.83
2018-06-28T06:06:46.879Z,79.65
2018-06-28T06:07:46.869Z,78.31
2018-06-28T06:08:46.823Z,77.99
2018-06-28T06:09:46.769Z,77.86
2018-06-28T06:10:46.748Z,77.78
2018-06-28T06:11:46.845Z,78.99
2018-06-28T06:12:46.828Z,77.28
2018-06-28T06:13:46.879Z,77.09
2018-06-28T06:14:46.809Z,77.28
2018-06-28T06:15:46.759Z,76.57
2018-06-28T06:16:46.850Z,76.36
2018-06-28T06:17:46.852Z,77.65
2018-06-28T06:18:46.817Z,77.47
2018-06-28T06:19:46.889Z,77.20
2018-06-28T06:20:46.831Z,77.59
2018-06-28T06:21:46.898Z,77.49
2018-06-28T06:22:46.760Z,77.86
2018-06-28T06:23:46.759Z,76.34
2018-06-28T06:24:46.882Z,76.18
2018-06-28T06:25:46.813Z,76.81
2018-06-28T06:26:46.878Z,76.75
2018-06-28T06:27:46.887Z,76.20
2018-06-28T06:28:46.858Z,75.89
2018-06-28T06:29:46.861Z,75.37
2018-06-28T06:30:46.836Z,74.71
2018-06-28T06:31:46.887Z,74.73
2018-06-28T06:32:46.934Z,74.84
2018-06-28T06:33:46.756Z,73.06
2018-06-28T06:34:46.821Z,73.27
2018-06-28T06:35:46.760Z,73.58
2018-06-28T06:36:46.900Z,72.80
2018-06-28T06:37:46.904Z,72.51
2018-06-28T06:38:46.767Z,71.21
2018-06-28T06:39:46.769Z,72.09
2018-06-28T06:40:46.885Z,71.18
2018-06-28T06:41:46.877Z,71.36
2018-06-28T06:42:46.884Z,71.94
2018-06-28T06:43:46.820Z,71.91
2018-06-28T06:44:46.858Z,71.96
2018-06-28T06:45:46.777Z,71.60
2018-06-28T06:46:46.863Z,70.60
2018-06-28T06:47:46.774Z,70.29
2018-06-28T06:48:46.854Z,70.95
2018-06-28T06:49:46.800Z,70.35
2018-06-28T06:50:46.759Z,70.45
2018-06-28T06:51:46.743Z,70.50
2018-06-28T06:52:46.745Z,70.43
2018-06-28T06:53:46.862Z,69.49
2018-06-28T06:54:46.830Z,69.85
2018-06-28T06:55:46.763Z,68.04
2018-06-28T06:56:46.827Z,68.04
2018-06-28T06:57:46.766Z,68.71
2018-06-28T06:58:46.803Z,67.08
2018-06-28T06:59:46.864Z,67.23
2018-06-28T07:00:46.769Z,66.95
2018-06-28T07:01:46.837Z,67.39
2018-06-28T07:02:46.811Z,67.52
2018-06-28T07:03:46.912Z,67.23
2018-06-28T07:04:46.905Z,66.74
2018-06-28T07:05:46.907Z,65.91
2018-06-28T07:06:46.880Z,64.44
2018-06-28T07:07:46.887Z,64.65
2018-06-28T07:08:46.904Z,64.05
2018-06-28T07:09:46.915Z,66.43
2018-06-28T07:10:46.908Z,66.79
2018-06-28T07:11:46.862Z,65.03
2018-06-28T07:12:46.786Z,64.75
2018-06-28T07:13:46.882Z,64.10
2018-06-28T07:14:46.845Z,64.02
2018-06-28T07:15:46.929Z,62.38
2018-06-28T07:16:46.891Z,63.41
2018-06-28T07:17:46.889Z,64.38
2018-06-28T07:18:46.823Z,63.18
2018-06-28T07:19:46.896Z,63.13
2018-06-28T07:20:46.826Z,62.92
2018-06-28T07:21:46.894Z,64.29
2018-06-28T07:22:46.965Z,63.49
2018-06-28T07:23:46.919Z,63.10
2018-06-28T07:24:46.800Z,63.95
2018-06-28T07:25:46.853Z,63.59
2018-06-28T07:26:46.922Z,62.71
2018-06-28T07:27:46.877Z,64.10
2018-06-28T07:28:46.880Z,64.10
2018-06-28T07:29:46.839Z,64.49
2018-06-28T07:30:46.879Z,61.27
2018-06-28T07:31:46.837Z,62.84
2018-06-28T07:32:46.975Z,62.43
2018-06-28T07:33:46.837Z,61.69
2018-06-28T07:34:46.801Z,61.94
2018-06-28T07:35:46.905Z,61.99
2018-06-28T07:36:46.903Z,61.17
2018-06-28T07:37:46.853Z,60.99
2018-06-28T07:38:46.903Z,60.71
2018-06-28T07:39:46.904Z,60.09
2018-06-28T07:40:46.837Z,60.53
2018-06-28T07:41:46.853Z,59.20
2018-06-28T07:42:46.911Z,59.53
2018-06-28T07:43:46.840Z,60.99
2018-06-28T07:44:46.907Z,59.63
2018-06-28T07:45:46.840Z,60.09
2018-06-28T07:46:46.944Z,61.20
2018-06-28T07:47:47.089Z,61.58
2018-06-28T07:48:46.851Z,60.61
2018-06-28T07:49:47.097Z,60.45
2018-06-28T07:50:47.079Z,60.61
2018-06-28T07:51:46.851Z,61.48
2018-06-28T07:52:46.846Z,59.58
2018-06-28T07:53:46.918Z,59.30
2018-06-28T07:54:46.914Z,59.30
2018-06-28T07:55:46.982Z,59.73
2018-06-28T07:56:46.847Z,58.92
2018-06-28T07:57:46.919Z,60.30
2018-06-28T07:58:46.851Z,58.38
2018-06-28T07:59:47.009Z,57.82
2018-06-28T08:00:46.918Z,58.40
2018-06-28T08:01:46.856Z,57.59
2018-06-28T08:02:46.854Z,57.43
2018-06-28T08:03:46.876Z,58.33
2018-06-28T08:04:46.886Z,55.24
2018-06-28T08:05:46.884Z,55.98
2018-06-28T08:06:46.833Z,56.06
2018-06-28T08:07:46.900Z,55.80
2018-06-28T08:08:46.941Z,57.99
2018-06-28T08:09:47.005Z,58.20
2018-06-28T08:10:46.900Z,55.32
2018-06-28T08:11:46.894Z,56.54
2018-06-28T08:12:46.928Z,56.85
2018-06-28T08:13:46.953Z,55.88
2018-06-28T08:14:46.903Z,54.66
2018-06-28T08:15:46.890Z,54.23
2018-06-28T08:16:46.910Z,56.61
2018-06-28T08:17:46.895Z,56.11
2018-06-28T08:18:46.837Z,56.90
2018-06-28T08:19:46.916Z,55.45
2018-06-28T08:20:46.928Z,54.15
2018-06-28T08:21:46.972Z,55.65
2018-06-28T08:22:46.970Z,55.37
2018-06-28T08:23:46.907Z,54.89
2018-06-28T08:24:46.936Z,56.49
2018-06-28T08:25:46.953Z,55.78
2018-06-28T08:26:46.840Z,55.32
2018-06-28T08:27:46.954Z,55.30
2018-06-28T08:28:46.959Z,54.99
2018-06-28T08:29:46.966Z,54.76
2018-06-28T08:30:46.937Z,55.70
2018-06-28T08:31:46.978Z,54.41
2018-06-28T08:32:46.974Z,54.17
2018-06-28T08:33:46.842Z,52.93
2018-06-28T08:34:46.874Z,52.32
2018-06-28T08:35:46.909Z,51.21
2018-06-28T08:36:46.939Z,52.32
2018-06-28T08:37:46.876Z,52.78
2018-06-28T08:38:46.956Z,50.40
2018-06-28T08:39:46.919Z,50.93
2018-06-28T08:40:46.880Z,52.40
2018-06-28T08:41:46.877Z,53.49
2018-06-28T08:42:46.945Z,50.40
2018-06-28T08:43:46.947Z,47.61
2018-06-28T08:44:46.867Z,46.38
2018-06-28T08:45:46.867Z,46.40
2018-06-28T08:46:46.934Z,45.37
2018-06-28T08:47:46.857Z,45.20
2018-06-28T08:48:46.944Z,46.30
2018-06-28T08:49:46.887Z,44.80
2018-06-28T08:50:46.858Z,47.15
2018-06-28T08:51:46.935Z,47.45
2018-06-28T08:52:46.856Z,45.30
2018-06-28T08:53:46.862Z,45.22
2018-06-28T08:54:46.914Z,44.27
2018-06-28T08:55:47.036Z,45.98
2018-06-28T08:56:46.978Z,46.05
2018-06-28T08:57:47.024Z,46.78
2018-06-28T08:58:46.981Z,46.07
2018-06-28T08:59:46.919Z,45.25
2018-06-28T09:00:46.936Z,45.62
2018-06-28T09:01:46.975Z,45.37
2018-06-28T09:02:46.987Z,45.25
2018-06-28T09:03:46.898Z,43.05
2018-06-28T09:04:46.863Z,43.40
2018-06-28T09:05:46.978Z,44.35
2018-06-28T09:06:46.915Z,43.27
2018-06-28T09:07:46.963Z,43.92
2018-06-28T09:08:46.953Z,45.90
2018-06-28T09:09:46.954Z,44.39
2018-06-28T09:10:46.895Z,44.80
2018-06-28T09:11:46.894Z,43.85
2018-06-28T09:12:46.900Z,45.48
2018-06-28T09:13:46.958Z,45.75
2018-06-28T09:14:46.991Z,49.47
2018-06-28T09:15:46.999Z,45.80
2018-06-28T09:16:46.888Z,44.93
2018-06-28T09:17:46.934Z,44.07
2018-06-28T09:18:46.944Z,44.39
2018-06-28T09:19:46.907Z,44.90
2018-06-28T09:20:46.876Z,45.10
2018-06-28T09:21:46.967Z,41.50
2018-06-28T09:22:47.058Z,43.40
2018-06-28T09:23:46.999Z,42.60
2018-06-28T09:24:47.007Z,43.92
2018-06-28T09:25:46.897Z,45.77
2018-06-28T09:26:47.056Z,45.93
2018-06-28T09:27:46.955Z,46.38
2018-06-28T09:28:46.900Z,46.60
2018-06-28T09:29:47.004Z,45.95
2018-06-28T09:30:46.958Z,46.30
2018-06-28T09:31:46.981Z,46.23
2018-06-28T09:32:46.935Z,43.90
2018-06-28T09:33:46.949Z,45.07
2018-06-28T09:34:46.943Z,42.97
2018-06-28T09:35:46.954Z,42.25
2018-06-28T09:36:47.012Z,42.65
2018-06-28T09:37:46.945Z,42.67
2018-06-28T09:38:46.908Z,42.48
2018-06-28T09:39:46.944Z,41.35
2018-06-28T09:40:47.005Z,42.80
2018-06-28T09:41:46.942Z,43.20
2018-06-28T09:42:46.983Z,43.50
2018-06-28T09:43:47.002Z,43.55
2018-06-28T09:44:46.922Z,45.77
2018-06-28T09:45:46.925Z,46.98
2018-06-28T09:46:46.988Z,41.45
2018-06-28T09:47:46.988Z,43.15
2018-06-28T09:48:47.083Z,41.08
2018-06-28T09:49:46.990Z,41.82
2018-06-28T09:50:46.989Z,40.34
2018-06-28T09:51:46.927Z,40.78
2018-06-28T09:52:47.032Z,45.30
2018-06-28T09:53:46.932Z,40.54
2018-06-28T09:54:46.999Z,40.29
2018-06-28T09:55:46.869Z,40.46
2018-06-28T09:56:46.972Z,43.10
2018-06-28T09:57:46.975Z,43.33
2018-06-28T09:58:46.986Z,39.74
2018-06-28T09:59:46.934Z,44.80
2018-06-28T10:00:46.983Z,44.97
2018-06-28T10:01:46.862Z,43.47
2018-06-28T10:02:46.993Z,41.85
2018-06-28T10:03:46.924Z,39.69
2018-06-28T10:04:46.889Z,39.44
2018-06-28T10:05:46.989Z,40.46
2018-06-28T10:06:47.031Z,39.69
2018-06-28T10:07:46.986Z,40.61
2018-06-28T10:08:46.954Z,41.82
2018-06-28T10:09:46.943Z,41.23
2018-06-28T10:10:46.923Z,40.09
2018-06-28T10:11:46.955Z,39.40
2018-06-28T10:12:47.011Z,41.13
2018-06-28T10:13:46.934Z,40.76
2018-06-28T10:14:47.040Z,40.24
2018-06-28T10:15:46.870Z,40.51
2018-06-28T10:16:46.986Z,40.85
2018-06-28T10:17:46.931Z,42.45
2018-06-28T10:18:46.993Z,39.71
2018-06-28T10:19:46.947Z,40.01
2018-06-28T10:20:46.920Z,41.48
2018-06-28T10:21:46.935Z,39.74
2018-06-28T10:22:46.992Z,39.71
2018-06-28T10:23:46.937Z,43.42
2018-06-28T10:24:47.015Z,40.98
2018-06-28T10:25:47.023Z,41.23
2018-06-28T10:26:47.014Z,42.20
2018-06-28T10:27:46.964Z,41.85
2018-06-28T10:28:47.016Z,41.88
2018-06-28T10:29:46.952Z,42.85
2018-06-28T10:30:47.034Z,42.00
2018-06-28T10:31:46.904Z,42.92
2018-06-28T10:32:47.000Z,43.38
2018-06-28T10:33:46.945Z,44.97
2018-06-28T10:34:46.891Z,44.15
2018-06-28T10:35:46.892Z,42.33
2018-06-28T10:36:46.975Z,40.98
2018-06-28T10:37:47.007Z,43.38
2018-06-28T10:38:46.926Z,42.42
2018-06-28T10:39:47.005Z,43.20
2018-06-28T10:40:47.014Z,43.30
2018-06-28T10:41:47.010Z,41.93
2018-06-28T10:42:47.018Z,41.56
2018-06-28T10:43:47.011Z,41.95
2018-06-28T10:44:46.932Z,44.17
2018-06-28T10:45:46.948Z,43.92
2018-06-28T10:46:47.007Z,44.37
2018-06-28T10:47:46.970Z,44.30
2018-06-28T10:48:47.046Z,46.60
2018-06-28T10:49:47.033Z,44.95
2018-06-28T10:50:46.950Z,42.92
2018-06-28T10:51:47.009Z,44.85
2018-06-28T10:52:46.932Z,47.73
2018-06-28T10:53:46.999Z,44.00
2018-06-28T10:54:47.018Z,46.45
2018-06-28T10:55:46.964Z,42.80
2018-06-28T10:56:46.968Z,43.65
2018-06-28T10:57:46.923Z,40.88
2018-06-28T10:58:47.021Z,40.76
2018-06-28T10:59:46.941Z,41.58
2018-06-28T11:00:46.938Z,42.05
2018-06-28T11:01:46.978Z,44.22
2018-06-28T11:02:46.918Z,47.76
2018-06-28T11:03:46.990Z,44.45
2018-06-28T11:04:47.181Z,42.72
2018-06-28T11:05:46.950Z,39.96
2018-06-28T11:06:47.044Z,40.54
2018-06-28T11:07:47.015Z,40.11
2018-06-28T11:08:47.074Z,40.73
2018-06-28T11:09:47.067Z,39.94
2018-06-28T11:10:46.857Z,40.61
2018-06-28T11:11:47.008Z,43.35
2018-06-28T11:12:47.006Z,39.12
2018-06-28T11:13:47.074Z,39.66
2018-06-28T11:14:46.955Z,40.71
2018-06-28T11:15:47.079Z,38.18
2018-06-28T11:16:47.018Z,38.21
2018-06-28T11:17:46.990Z,41.01
2018-06-28T11:18:47.030Z,42.87
2018-06-28T11:19:47.013Z,38.99
2018-06-28T11:20:47.023Z,41.65
2018-06-28T11:21:47.008Z,40.01
2018-06-28T11:22:47.084Z,42.53
2018-06-28T11:23:47.033Z,41.23
2018-06-28T11:24:47.080Z,42.42
2018-06-28T11:25:47.149Z,41.80
2018-06-28T11:26:46.959Z,44.87
2018-06-28T11:27:47.019Z,44.27
2018-06-28T11:28:47.014Z,45.75
2018-06-28T11:29:47.014Z,46.27
2018-06-28T11:30:47.021Z,44.30
2018-06-28T11:31:47.085Z,46.02
2018-06-28T11:32:47.034Z,42.95
2018-06-28T11:33:47.058Z,42.00
2018-06-28T11:34:47.061Z,42.00
2018-06-28T11:35:47.064Z,41.56
2018-06-28T11:36:47.062Z,41.88
2018-06-28T11:37:46.998Z,43.47
2018-06-28T11:38:46.995Z,44.32
2018-06-28T11:39:47.065Z,44.37
2018-06-28T11:40:47.081Z,46.35
2018-06-28T11:41:47.065Z,44.30
2018-06-28T11:42:47.025Z,44.39
2018-06-28T11:43:47.063Z,45.10
2018-06-28T11:44:47.049Z,43.13
2018-06-28T11:45:46.988Z,45.02
2018-06-28T11:46:47.007Z,43.92
2018-06-28T11:47:47.074Z,45.22
2018-06-28T11:48:47.048Z,45.60
2018-06-28T11:49:47.094Z,46.63
2018-06-28T11:50:47.047Z,46.12
2018-06-28T11:51:47.045Z,45.65
2018-06-28T11:52:47.094Z,45.85
2018-06-28T11:53:47.111Z,46.45
2018-06-28T11:54:47.008Z,45.30
2018-06-28T11:55:47.038Z,44.27
2018-06-28T11:56:47.101Z,44.55
2018-06-28T11:57:46.982Z,44.55
2018-06-28T11:58:47.114Z,44.47
2018-06-28T11:59:47.031Z,44.62
2018-06-28T12:00:47.112Z,45.25
2018-06-28T12:01:46.986Z,44.17
2018-06-28T12:02:47.048Z,43.97
2018-06-28T12:03:47.107Z,45.57
2018-06-28T12:04:47.064Z,41.95
2018-06-28T12:05:46.942Z,43.55
2018-06-28T12:06:46.951Z,42.03
2018-06-28T12:07:46.957Z,41.35
2018-06-28T12:08:46.943Z,41.88
2018-06-28T12:09:47.007Z,44.10
2018-06-28T12:10:47.061Z,42.83
2018-06-28T12:11:47.008Z,42.18
2018-06-28T12:12:47.009Z,41.03
2018-06-28T12:13:47.019Z,41.85
2018-06-28T12:14:47.091Z,42.92
2018-06-28T12:15:47.022Z,41.58
2018-06-28T12:16:46.982Z,44.12
2018-06-28T12:17:47.095Z,42.78
2018-06-28T12:18:47.099Z,41.18
2018-06-28T12:19:47.025Z,41.56
2018-06-28T12:20:47.093Z,41.98
2018-06-28T12:21:47.095Z,42.58
2018-06-28T12:22:47.024Z,44.87
2018-06-28T12:23:47.030Z,44.39
2018-06-28T12:24:47.075Z,44.43
2018-06-28T12:25:47.113Z,40.13
2018-06-28T12:26:47.078Z,42.20
2018-06-28T12:27:46.999Z,41.40
2018-06-28T12:28:47.031Z,45.57
2018-06-28T12:29:47.030Z,41.48
2018-06-28T12:30:46.970Z,41.98
2018-06-28T12:31:46.998Z,42.70
2018-06-28T12:32:47.019Z,41.65
2018-06-28T12:33:47.102Z,42.03
2018-06-28T12:34:47.030Z,42.20
2018-06-28T12:35:47.101Z,44.05
2018-06-28T12:36:47.101Z,41.53
2018-06-28T12:37:47.034Z,42.37
2018-06-28T12:38:47.102Z,43.82
2018-06-28T12:39:47.103Z,44.22
2018-06-28T12:40:47.105Z,43.90
2018-06-28T12:41:47.106Z,44.37
2018-06-28T12:42:47.035Z,44.27
2018-06-28T12:43:47.036Z,46.45
2018-06-28T12:44:47.059Z,46.25
2018-06-28T12:45:47.070Z,45.40
2018-06-28T12:46:47.143Z,44.50
2018-06-28T12:47:47.109Z,45.02
2018-06-28T12:48:47.145Z,46.27
2018-06-28T12:49:47.134Z,45.02
2018-06-28T12:50:47.072Z,45.32
2018-06-28T12:51:47.049Z,45.98
2018-06-28T12:52:47.137Z,46.20